sensor_id;sensor_type;location;lat;lon;timestamp;temperature;humidity
14908;DHT22;7545;52.092;7.006;2022-11-06T00:01:09;10.70;99.90
14908;DHT22;7545;52.092;7.006;2022-11-06T00:03:36;10.60;99.90
14908;DHT22;7545;52.092;7.006;2022-11-06T00:06:09;10.60;99.90
14908;DHT22;7545;52.092;7.006;2022-11-06T00:08:54;10.60;99.90
14908;DHT22;7545;52.092;7.006;2022-11-06T00:11:20;10.60;99.90
14908;DHT22;7545;52.092;7.006;2022-11-06T00:13:46;10.60;99.90
14908;DHT22;7545;52.092;7.006;2022-11-06T00:16:13;10.60;99.90
14908;DHT22;7545;52.092;7.006;2022-11-06T00:18:40;10.50;99.90
14908;DHT22;7545;52.092;7.006;2022-11-06T00:21:27;10.60;99.90
14908;DHT22;7545;52.092;7.006;2022-11-06T00:23:53;10.60;99.90
14908;DHT22;7545;52.092;7.006;2022-11-06T00:26:22;10.60;99.90
14908;DHT22;7545;52.092;7.006;2022-11-06T00:28:48;10.60;99.90
14908;DHT22;7545;52.092;7.006;2022-11-06T00:31:35;10.60;99.90
14908;DHT22;7545;52.092;7.006;2022-11-06T00:34:02;10.60;99.90
14908;DHT22;7545;52.092;7.006;2022-11-06T00:36:29;10.60;99.90
14908;DHT22;7545;52.092;7.006;2022-11-06T00:38:56;10.60;99.90
14908;DHT22;7545;52.092;7.006;2022-11-06T00:41:22;10.60;99.90
14908;DHT22;7545;52.092;7.006;2022-11-06T00:43:53;10.60;99.90
14908;DHT22;7545;52.092;7.006;2022-11-06T00:46:19;10.50;99.90
14908;DHT22;7545;52.092;7.006;2022-11-06T00:48:45;10.50;99.90
14908;DHT22;7545;52.092;7.006;2022-11-06T00:51:18;10.60;99.90
14908;DHT22;7545;52.092;7.006;2022-11-06T00:53:44;10.60;99.90
14908;DHT22;7545;52.092;7.006;2022-11-06T00:56:16;10.50;99.90
14908;DHT22;7545;52.092;7.006;2022-11-06T00:58:42;10.50;99.90
14908;DHT22;7545;52.092;7.006;2022-11-06T01:01:11;10.50;99.90
14908;DHT22;7545;52.092;7.006;2022-11-06T01:03:38;10.50;99.90
14908;DHT22;7545;52.092;7.006;2022-11-06T01:06:09;10.50;99.90
14908;DHT22;7545;52.092;7.006;2022-11-06T01:08:35;10.50;99.90
14908;DHT22;7545;52.092;7.006;2022-11-06T01:11:22;10.50;99.90
14908;DHT22;7545;52.092;7.006;2022-11-06T01:13:50;10.50;99.90
14908;DHT22;7545;52.092;7.006;2022-11-06T01:16:16;10.50;99.90
14908;DHT22;7545;52.092;7.006;2022-11-06T01:18:43;10.40;99.90
14908;DHT22;7545;52.092;7.006;2022-11-06T01:21:12;10.40;99.90
14908;DHT22;7545;52.092;7.006;2022-11-06T01:23:38;10.40;99.90
14908;DHT22;7545;52.092;7.006;2022-11-06T01:26:06;10.40;99.90
14908;DHT22;7545;52.092;7.006;2022-11-06T01:28:33;10.40;99.90
14908;DHT22;7545;52.092;7.006;2022-11-06T01:31:26;10.40;99.90
14908;DHT22;7545;52.092;7.006;2022-11-06T01:33:52;10.40;99.90
14908;DHT22;7545;52.092;7.006;2022-11-06T01:36:19;10.40;99.90
14908;DHT22;7545;52.092;7.006;2022-11-06T01:38:48;10.40;99.90
14908;DHT22;7545;52.092;7.006;2022-11-06T01:41:19;10.40;99.90
14908;DHT22;7545;52.092;7.006;2022-11-06T01:43:50;10.40;99.90
14908;DHT22;7545;52.092;7.006;2022-11-06T01:46:17;10.40;99.90
14908;DHT22;7545;52.092;7.006;2022-11-06T01:48:47;10.40;99.90
14908;DHT22;7545;52.092;7.006;2022-11-06T01:51:14;10.40;99.90
14908;DHT22;7545;52.092;7.006;2022-11-06T01:53:40;10.40;99.90
14908;DHT22;7545;52.092;7.006;2022-11-06T01:56:08;10.40;99.90
14908;DHT22;7545;52.092;7.006;2022-11-06T01:58:36;10.40;99.90
14908;DHT22;7545;52.092;7.006;2022-11-06T02:01:04;10.40;99.90
14908;DHT22;7545;52.092;7.006;2022-11-06T02:03:30;10.40;99.90
14908;DHT22;7545;52.092;7.006;2022-11-06T02:05:56;10.40;99.90
14908;DHT22;7545;52.092;7.006;2022-11-06T02:08:22;10.40;99.90
14908;DHT22;7545;52.092;7.006;2022-11-06T02:10:49;10.40;99.90
14908;DHT22;7545;52.092;7.006;2022-11-06T02:13:46;10.30;99.90
14908;DHT22;7545;52.092;7.006;2022-11-06T02:16:51;10.30;99.90
14908;DHT22;7545;52.092;7.006;2022-11-06T02:19:53;10.30;99.90
14908;DHT22;7545;52.092;7.006;2022-11-06T02:22:51;10.30;99.90
14908;DHT22;7545;52.092;7.006;2022-11-06T02:28:22;10.30;99.90
14908;DHT22;7545;52.092;7.006;2022-11-06T02:30:50;10.30;99.90
14908;DHT22;7545;52.092;7.006;2022-11-06T02:33:19;10.30;99.90
14908;DHT22;7545;52.092;7.006;2022-11-06T02:35:54;10.30;99.90
14908;DHT22;7545;52.092;7.006;2022-11-06T02:38:29;10.30;99.90
14908;DHT22;7545;52.092;7.006;2022-11-06T02:40:58;10.20;99.90
14908;DHT22;7545;52.092;7.006;2022-11-06T02:43:29;10.20;99.90
14908;DHT22;7545;52.092;7.006;2022-11-06T02:46:02;10.20;99.90
14908;DHT22;7545;52.092;7.006;2022-11-06T02:48:36;10.20;99.90
14908;DHT22;7545;52.092;7.006;2022-11-06T02:51:04;10.20;99.90
14908;DHT22;7545;52.092;7.006;2022-11-06T02:53:33;10.20;99.90
14908;DHT22;7545;52.092;7.006;2022-11-06T02:56:13;10.20;99.90
14908;DHT22;7545;52.092;7.006;2022-11-06T02:58:45;10.20;99.90
14908;DHT22;7545;52.092;7.006;2022-11-06T03:01:23;10.20;99.90
14908;DHT22;7545;52.092;7.006;2022-11-06T03:03:55;10.20;99.90
14908;DHT22;7545;52.092;7.006;2022-11-06T03:06:40;10.20;99.90
14908;DHT22;7545;52.092;7.006;2022-11-06T03:09:11;10.20;99.90
14908;DHT22;7545;52.092;7.006;2022-11-06T03:11:38;10.20;99.90
14908;DHT22;7545;52.092;7.006;2022-11-06T03:14:19;10.20;99.90
14908;DHT22;7545;52.092;7.006;2022-11-06T03:16:56;10.20;99.90
14908;DHT22;7545;52.092;7.006;2022-11-06T03:25:02;10.30;99.90
14908;DHT22;7545;52.092;7.006;2022-11-06T03:27:37;10.30;99.90
14908;DHT22;7545;52.092;7.006;2022-11-06T03:30:06;10.30;99.90
14908;DHT22;7545;52.092;7.006;2022-11-06T03:35:23;10.30;99.90
14908;DHT22;7545;52.092;7.006;2022-11-06T03:38:40;10.30;99.90
14908;DHT22;7545;52.092;7.006;2022-11-06T03:40:51;10.20;99.90
14908;DHT22;7545;52.092;7.006;2022-11-06T03:43:22;10.20;99.90
14908;DHT22;7545;52.092;7.006;2022-11-06T03:45:51;10.20;99.90
14908;DHT22;7545;52.092;7.006;2022-11-06T03:48:22;10.20;99.90
14908;DHT22;7545;52.092;7.006;2022-11-06T03:51:01;10.20;99.90
14908;DHT22;7545;52.092;7.006;2022-11-06T03:53:34;10.20;99.90
14908;DHT22;7545;52.092;7.006;2022-11-06T03:56:06;10.20;99.90
14908;DHT22;7545;52.092;7.006;2022-11-06T03:58:37;10.20;99.90
14908;DHT22;7545;52.092;7.006;2022-11-06T04:01:06;10.20;99.90
14908;DHT22;7545;52.092;7.006;2022-11-06T04:03:50;10.20;99.90
14908;DHT22;7545;52.092;7.006;2022-11-06T04:06:39;10.20;99.90
14908;DHT22;7545;52.092;7.006;2022-11-06T04:09:08;10.20;99.90
14908;DHT22;7545;52.092;7.006;2022-11-06T04:12:08;10.20;99.90
14908;DHT22;7545;52.092;7.006;2022-11-06T04:14:55;10.20;99.90
14908;DHT22;7545;52.092;7.006;2022-11-06T04:17:23;10.20;99.90
14908;DHT22;7545;52.092;7.006;2022-11-06T04:19:53;10.30;99.90
14908;DHT22;7545;52.092;7.006;2022-11-06T04:30:58;10.30;99.90
14908;DHT22;7545;52.092;7.006;2022-11-06T04:33:33;10.30;99.90
14908;DHT22;7545;52.092;7.006;2022-11-06T04:38:43;10.30;99.90
14908;DHT22;7545;52.092;7.006;2022-11-06T04:41:39;10.30;99.90
14908;DHT22;7545;52.092;7.006;2022-11-06T04:44:08;10.30;99.90
14908;DHT22;7545;52.092;7.006;2022-11-06T04:46:38;10.30;99.90
14908;DHT22;7545;52.092;7.006;2022-11-06T04:49:06;10.30;99.90
14908;DHT22;7545;52.092;7.006;2022-11-06T04:51:36;10.30;99.90
14908;DHT22;7545;52.092;7.006;2022-11-06T04:54:04;10.40;99.90
14908;DHT22;7545;52.092;7.006;2022-11-06T04:56:34;10.40;99.90
14908;DHT22;7545;52.092;7.006;2022-11-06T04:58:59;10.40;99.90
14908;DHT22;7545;52.092;7.006;2022-11-06T05:01:25;10.40;99.90
14908;DHT22;7545;52.092;7.006;2022-11-06T05:03:51;10.40;99.90
14908;DHT22;7545;52.092;7.006;2022-11-06T05:06:17;10.40;99.90
14908;DHT22;7545;52.092;7.006;2022-11-06T05:08:43;10.40;99.90
14908;DHT22;7545;52.092;7.006;2022-11-06T05:11:08;10.40;99.90
14908;DHT22;7545;52.092;7.006;2022-11-06T05:13:34;10.40;99.90
14908;DHT22;7545;52.092;7.006;2022-11-06T05:16:00;10.40;99.90
14908;DHT22;7545;52.092;7.006;2022-11-06T05:18:26;10.40;99.90
14908;DHT22;7545;52.092;7.006;2022-11-06T05:20:52;10.40;99.90
14908;DHT22;7545;52.092;7.006;2022-11-06T05:23:38;10.40;99.90
14908;DHT22;7545;52.092;7.006;2022-11-06T05:26:05;10.30;99.90
14908;DHT22;7545;52.092;7.006;2022-11-06T05:28:31;10.30;99.90
14908;DHT22;7545;52.092;7.006;2022-11-06T05:30:57;10.30;99.90
14908;DHT22;7545;52.092;7.006;2022-11-06T05:33:22;10.30;99.90
14908;DHT22;7545;52.092;7.006;2022-11-06T05:35:49;10.30;99.90
14908;DHT22;7545;52.092;7.006;2022-11-06T05:38:14;10.30;99.90
14908;DHT22;7545;52.092;7.006;2022-11-06T05:40:40;10.30;99.90
14908;DHT22;7545;52.092;7.006;2022-11-06T05:43:05;10.20;99.90
14908;DHT22;7545;52.092;7.006;2022-11-06T05:45:31;10.20;99.90
14908;DHT22;7545;52.092;7.006;2022-11-06T05:47:57;10.20;99.90
14908;DHT22;7545;52.092;7.006;2022-11-06T05:50:23;10.20;99.90
14908;DHT22;7545;52.092;7.006;2022-11-06T05:52:48;10.20;99.90
14908;DHT22;7545;52.092;7.006;2022-11-06T05:55:14;10.20;99.90
14908;DHT22;7545;52.092;7.006;2022-11-06T05:57:39;10.20;99.90
14908;DHT22;7545;52.092;7.006;2022-11-06T06:00:06;10.20;99.90
14908;DHT22;7545;52.092;7.006;2022-11-06T06:02:32;10.20;99.90
14908;DHT22;7545;52.092;7.006;2022-11-06T06:04:57;10.20;99.90
14908;DHT22;7545;52.092;7.006;2022-11-06T06:07:23;10.20;99.90
14908;DHT22;7545;52.092;7.006;2022-11-06T06:09:49;10.20;99.90
14908;DHT22;7545;52.092;7.006;2022-11-06T06:12:14;10.20;99.90
14908;DHT22;7545;52.092;7.006;2022-11-06T06:14:40;10.20;99.90
14908;DHT22;7545;52.092;7.006;2022-11-06T06:17:06;10.20;99.90
14908;DHT22;7545;52.092;7.006;2022-11-06T06:19:32;10.20;99.90
14908;DHT22;7545;52.092;7.006;2022-11-06T06:21:57;10.20;99.90
14908;DHT22;7545;52.092;7.006;2022-11-06T06:24:23;10.20;99.90
14908;DHT22;7545;52.092;7.006;2022-11-06T06:26:48;10.20;99.90
14908;DHT22;7545;52.092;7.006;2022-11-06T06:29:14;10.20;99.90
14908;DHT22;7545;52.092;7.006;2022-11-06T06:31:40;10.20;99.90
14908;DHT22;7545;52.092;7.006;2022-11-06T06:34:05;10.20;99.90
14908;DHT22;7545;52.092;7.006;2022-11-06T06:36:31;10.20;99.90
14908;DHT22;7545;52.092;7.006;2022-11-06T06:38:56;10.20;99.90
14908;DHT22;7545;52.092;7.006;2022-11-06T06:41:22;10.20;99.90
14908;DHT22;7545;52.092;7.006;2022-11-06T06:43:48;10.20;99.90
14908;DHT22;7545;52.092;7.006;2022-11-06T06:46:14;10.20;99.90
14908;DHT22;7545;52.092;7.006;2022-11-06T06:48:40;10.30;99.90
14908;DHT22;7545;52.092;7.006;2022-11-06T06:51:06;10.30;99.90
14908;DHT22;7545;52.092;7.006;2022-11-06T06:53:32;10.30;99.90
14908;DHT22;7545;52.092;7.006;2022-11-06T06:55:59;10.30;99.90
14908;DHT22;7545;52.092;7.006;2022-11-06T06:58:25;10.30;99.90
14908;DHT22;7545;52.092;7.006;2022-11-06T07:00:51;10.30;99.90
14908;DHT22;7545;52.092;7.006;2022-11-06T07:03:17;10.30;99.90
14908;DHT22;7545;52.092;7.006;2022-11-06T07:05:42;10.30;99.90
14908;DHT22;7545;52.092;7.006;2022-11-06T07:08:08;10.40;99.90
14908;DHT22;7545;52.092;7.006;2022-11-06T07:10:34;10.40;99.90
14908;DHT22;7545;52.092;7.006;2022-11-06T07:13:01;10.40;99.90
14908;DHT22;7545;52.092;7.006;2022-11-06T07:15:26;10.40;99.90
14908;DHT22;7545;52.092;7.006;2022-11-06T07:17:52;10.40;99.90
14908;DHT22;7545;52.092;7.006;2022-11-06T07:20:18;10.50;99.90
14908;DHT22;7545;52.092;7.006;2022-11-06T07:22:43;10.50;99.90
14908;DHT22;7545;52.092;7.006;2022-11-06T07:25:09;10.50;99.90
14908;DHT22;7545;52.092;7.006;2022-11-06T07:27:34;10.50;99.90
14908;DHT22;7545;52.092;7.006;2022-11-06T07:30:00;10.60;99.90
14908;DHT22;7545;52.092;7.006;2022-11-06T07:32:26;10.60;99.90
14908;DHT22;7545;52.092;7.006;2022-11-06T07:34:52;10.60;99.90
14908;DHT22;7545;52.092;7.006;2022-11-06T07:37:18;10.60;99.90
14908;DHT22;7545;52.092;7.006;2022-11-06T07:39:43;10.70;99.90
14908;DHT22;7545;52.092;7.006;2022-11-06T07:42:09;10.60;99.90
14908;DHT22;7545;52.092;7.006;2022-11-06T07:44:34;10.60;99.90
14908;DHT22;7545;52.092;7.006;2022-11-06T07:47:00;10.70;99.90
14908;DHT22;7545;52.092;7.006;2022-11-06T07:49:25;10.70;99.90
14908;DHT22;7545;52.092;7.006;2022-11-06T07:51:51;10.70;99.90
14908;DHT22;7545;52.092;7.006;2022-11-06T07:54:17;10.70;99.90
14908;DHT22;7545;52.092;7.006;2022-11-06T07:56:42;10.80;99.90
14908;DHT22;7545;52.092;7.006;2022-11-06T07:59:08;10.70;99.90
14908;DHT22;7545;52.092;7.006;2022-11-06T08:01:34;10.70;99.90
14908;DHT22;7545;52.092;7.006;2022-11-06T08:03:59;10.80;99.90
14908;DHT22;7545;52.092;7.006;2022-11-06T08:06:25;10.80;99.90
14908;DHT22;7545;52.092;7.006;2022-11-06T08:08:50;10.80;99.90
14908;DHT22;7545;52.092;7.006;2022-11-06T08:11:16;10.80;99.90
14908;DHT22;7545;52.092;7.006;2022-11-06T08:13:41;10.90;99.90
14908;DHT22;7545;52.092;7.006;2022-11-06T08:16:10;10.90;99.90
14908;DHT22;7545;52.092;7.006;2022-11-06T08:18:36;10.90;99.90
14908;DHT22;7545;52.092;7.006;2022-11-06T08:21:04;10.90;99.90
14908;DHT22;7545;52.092;7.006;2022-11-06T08:23:30;10.90;99.90
14908;DHT22;7545;52.092;7.006;2022-11-06T08:25:59;10.90;99.90
14908;DHT22;7545;52.092;7.006;2022-11-06T08:28:26;10.90;99.90
14908;DHT22;7545;52.092;7.006;2022-11-06T08:30:52;10.90;99.90
14908;DHT22;7545;52.092;7.006;2022-11-06T08:33:19;10.90;99.90
14908;DHT22;7545;52.092;7.006;2022-11-06T08:35:45;10.90;99.90
14908;DHT22;7545;52.092;7.006;2022-11-06T08:38:12;11.00;99.90
14908;DHT22;7545;52.092;7.006;2022-11-06T08:40:38;11.00;99.90
14908;DHT22;7545;52.092;7.006;2022-11-06T08:43:07;11.00;99.90
14908;DHT22;7545;52.092;7.006;2022-11-06T08:45:40;11.10;99.90
14908;DHT22;7545;52.092;7.006;2022-11-06T08:48:07;11.10;99.90
14908;DHT22;7545;52.092;7.006;2022-11-06T08:50:34;11.10;99.90
14908;DHT22;7545;52.092;7.006;2022-11-06T08:53:01;11.20;99.90
14908;DHT22;7545;52.092;7.006;2022-11-06T08:55:29;11.20;99.90
14908;DHT22;7545;52.092;7.006;2022-11-06T08:57:55;11.20;99.90
14908;DHT22;7545;52.092;7.006;2022-11-06T09:00:22;11.30;99.90
14908;DHT22;7545;52.092;7.006;2022-11-06T09:02:47;11.30;99.90
14908;DHT22;7545;52.092;7.006;2022-11-06T09:05:13;11.40;99.90
14908;DHT22;7545;52.092;7.006;2022-11-06T09:07:39;11.40;99.90
14908;DHT22;7545;52.092;7.006;2022-11-06T09:10:05;11.50;99.90
14908;DHT22;7545;52.092;7.006;2022-11-06T09:12:30;11.50;99.90
14908;DHT22;7545;52.092;7.006;2022-11-06T09:14:56;11.50;99.90
14908;DHT22;7545;52.092;7.006;2022-11-06T09:17:21;11.60;99.90
14908;DHT22;7545;52.092;7.006;2022-11-06T09:19:51;11.60;99.90
14908;DHT22;7545;52.092;7.006;2022-11-06T09:22:18;11.70;99.90
14908;DHT22;7545;52.092;7.006;2022-11-06T09:24:44;11.70;99.90
14908;DHT22;7545;52.092;7.006;2022-11-06T09:27:10;11.70;99.90
14908;DHT22;7545;52.092;7.006;2022-11-06T09:29:36;11.70;99.90
14908;DHT22;7545;52.092;7.006;2022-11-06T09:32:08;11.70;99.90
14908;DHT22;7545;52.092;7.006;2022-11-06T09:34:34;11.70;99.90
14908;DHT22;7545;52.092;7.006;2022-11-06T09:37:01;11.80;99.90
14908;DHT22;7545;52.092;7.006;2022-11-06T09:39:27;11.70;99.90
14908;DHT22;7545;52.092;7.006;2022-11-06T09:42:00;11.80;99.90
14908;DHT22;7545;52.092;7.006;2022-11-06T09:44:47;11.80;99.90
14908;DHT22;7545;52.092;7.006;2022-11-06T09:47:19;11.70;99.90
14908;DHT22;7545;52.092;7.006;2022-11-06T09:49:50;11.70;99.90
14908;DHT22;7545;52.092;7.006;2022-11-06T09:52:39;11.80;99.90
14908;DHT22;7545;52.092;7.006;2022-11-06T09:55:15;11.80;99.90
14908;DHT22;7545;52.092;7.006;2022-11-06T09:57:46;11.80;99.90
14908;DHT22;7545;52.092;7.006;2022-11-06T10:00:15;11.80;99.90
14908;DHT22;7545;52.092;7.006;2022-11-06T10:02:56;11.80;99.90
14908;DHT22;7545;52.092;7.006;2022-11-06T10:05:27;11.80;99.90
14908;DHT22;7545;52.092;7.006;2022-11-06T10:08:01;11.80;99.90
14908;DHT22;7545;52.092;7.006;2022-11-06T10:10:38;11.80;99.90
14908;DHT22;7545;52.092;7.006;2022-11-06T10:13:14;11.80;99.90
14908;DHT22;7545;52.092;7.006;2022-11-06T10:16:03;11.80;99.90
14908;DHT22;7545;52.092;7.006;2022-11-06T10:18:53;11.80;99.90
14908;DHT22;7545;52.092;7.006;2022-11-06T10:21:47;11.90;99.90
14908;DHT22;7545;52.092;7.006;2022-11-06T10:24:36;11.90;99.90
14908;DHT22;7545;52.092;7.006;2022-11-06T10:27:16;11.90;99.90
14908;DHT22;7545;52.092;7.006;2022-11-06T10:35:14;11.90;99.90
14908;DHT22;7545;52.092;7.006;2022-11-06T10:38:09;12.00;99.90
14908;DHT22;7545;52.092;7.006;2022-11-06T10:40:38;12.00;99.90
14908;DHT22;7545;52.092;7.006;2022-11-06T10:48:35;12.20;99.90
14908;DHT22;7545;52.092;7.006;2022-11-06T10:51:24;12.30;99.90
14908;DHT22;7545;52.092;7.006;2022-11-06T10:54:03;12.40;99.90
14908;DHT22;7545;52.092;7.006;2022-11-06T10:59:12;12.60;99.90
14908;DHT22;7545;52.092;7.006;2022-11-06T11:01:38;12.60;99.90
14908;DHT22;7545;52.092;7.006;2022-11-06T11:04:04;12.70;99.90
14908;DHT22;7545;52.092;7.006;2022-11-06T11:06:30;12.70;99.90
14908;DHT22;7545;52.092;7.006;2022-11-06T11:08:56;12.80;99.90
14908;DHT22;7545;52.092;7.006;2022-11-06T11:11:26;12.80;99.90
14908;DHT22;7545;52.092;7.006;2022-11-06T11:16:23;13.00;99.90
14908;DHT22;7545;52.092;7.006;2022-11-06T11:18:50;13.00;99.90
14908;DHT22;7545;52.092;7.006;2022-11-06T11:21:20;13.10;99.90
14908;DHT22;7545;52.092;7.006;2022-11-06T11:24:09;13.10;99.90
14908;DHT22;7545;52.092;7.006;2022-11-06T11:26:47;13.20;99.90
14908;DHT22;7545;52.092;7.006;2022-11-06T11:29:25;13.30;99.90
14908;DHT22;7545;52.092;7.006;2022-11-06T11:31:57;13.30;99.90
14908;DHT22;7545;52.092;7.006;2022-11-06T11:34:26;13.40;99.90
14908;DHT22;7545;52.092;7.006;2022-11-06T11:36:57;13.50;99.90
14908;DHT22;7545;52.092;7.006;2022-11-06T11:39:29;13.60;99.90
14908;DHT22;7545;52.092;7.006;2022-11-06T11:42:28;13.60;99.90
14908;DHT22;7545;52.092;7.006;2022-11-06T11:47:36;13.80;99.90
14908;DHT22;7545;52.092;7.006;2022-11-06T11:50:32;13.80;99.90
14908;DHT22;7545;52.092;7.006;2022-11-06T11:53:05;13.90;99.90
14908;DHT22;7545;52.092;7.006;2022-11-06T11:55:38;13.90;99.90
14908;DHT22;7545;52.092;7.006;2022-11-06T12:00:56;13.90;99.90
14908;DHT22;7545;52.092;7.006;2022-11-06T12:03:25;13.90;99.90
14908;DHT22;7545;52.092;7.006;2022-11-06T12:05:52;13.90;99.90
14908;DHT22;7545;52.092;7.006;2022-11-06T12:08:27;13.90;99.90
14908;DHT22;7545;52.092;7.006;2022-11-06T12:11:01;13.90;99.90
14908;DHT22;7545;52.092;7.006;2022-11-06T12:13:27;13.80;99.90
14908;DHT22;7545;52.092;7.006;2022-11-06T12:16:14;13.80;99.90
14908;DHT22;7545;52.092;7.006;2022-11-06T12:18:47;13.70;99.90
14908;DHT22;7545;52.092;7.006;2022-11-06T12:21:23;13.70;99.90
14908;DHT22;7545;52.092;7.006;2022-11-06T12:26:45;13.70;99.90
14908;DHT22;7545;52.092;7.006;2022-11-06T12:29:38;13.70;99.90
14908;DHT22;7545;52.092;7.006;2022-11-06T12:32:22;13.60;99.90
14908;DHT22;7545;52.092;7.006;2022-11-06T12:35:02;13.60;99.90
14908;DHT22;7545;52.092;7.006;2022-11-06T12:37:56;13.60;99.90
14908;DHT22;7545;52.092;7.006;2022-11-06T12:40:34;13.60;99.90
14908;DHT22;7545;52.092;7.006;2022-11-06T12:43:13;13.60;99.90
14908;DHT22;7545;52.092;7.006;2022-11-06T12:51:39;13.50;99.90
14908;DHT22;7545;52.092;7.006;2022-11-06T13:05:14;14.00;99.90
14908;DHT22;7545;52.092;7.006;2022-11-06T13:13:19;14.20;99.90
14908;DHT22;7545;52.092;7.006;2022-11-06T13:19:36;14.30;99.90
14908;DHT22;7545;52.092;7.006;2022-11-06T13:24:30;14.30;99.90
14908;DHT22;7545;52.092;7.006;2022-11-06T13:29:44;14.20;99.90
14908;DHT22;7545;52.092;7.006;2022-11-06T13:32:14;14.10;99.90
14908;DHT22;7545;52.092;7.006;2022-11-06T13:34:42;14.00;99.90
14908;DHT22;7545;52.092;7.006;2022-11-06T13:37:38;14.00;99.90
14908;DHT22;7545;52.092;7.006;2022-11-06T13:45:23;13.80;99.90
14908;DHT22;7545;52.092;7.006;2022-11-06T13:48:47;13.70;99.90
14908;DHT22;7545;52.092;7.006;2022-11-06T13:51:01;13.70;99.90
14908;DHT22;7545;52.092;7.006;2022-11-06T13:53:47;13.60;99.90
14908;DHT22;7545;52.092;7.006;2022-11-06T14:06:44;13.50;99.90
14908;DHT22;7545;52.092;7.006;2022-11-06T14:09:17;13.60;99.90
14908;DHT22;7545;52.092;7.006;2022-11-06T14:11:44;13.50;99.90
14908;DHT22;7545;52.092;7.006;2022-11-06T14:14:15;13.50;99.90
14908;DHT22;7545;52.092;7.006;2022-11-06T14:24:50;13.30;99.90
14908;DHT22;7545;52.092;7.006;2022-11-06T14:32:47;13.30;99.90
14908;DHT22;7545;52.092;7.006;2022-11-06T14:40:38;13.20;99.90
14908;DHT22;7545;52.092;7.006;2022-11-06T14:46:05;13.10;99.90
14908;DHT22;7545;52.092;7.006;2022-11-06T14:48:37;13.10;99.90
14908;DHT22;7545;52.092;7.006;2022-11-06T14:51:06;13.00;99.90
14908;DHT22;7545;52.092;7.006;2022-11-06T14:53:37;13.00;99.90
14908;DHT22;7545;52.092;7.006;2022-11-06T14:56:06;13.00;99.90
14908;DHT22;7545;52.092;7.006;2022-11-06T14:58:39;12.90;99.90
14908;DHT22;7545;52.092;7.006;2022-11-06T15:16:59;12.80;99.90
14908;DHT22;7545;52.092;7.006;2022-11-06T15:19:46;12.70;99.90
14908;DHT22;7545;52.092;7.006;2022-11-06T15:30:59;12.70;99.90
14908;DHT22;7545;52.092;7.006;2022-11-06T15:33:35;12.60;99.90
14908;DHT22;7545;52.092;7.006;2022-11-06T15:36:05;12.60;99.90
14908;DHT22;7545;52.092;7.006;2022-11-06T15:38:40;12.60;99.90
14908;DHT22;7545;52.092;7.006;2022-11-06T15:41:12;12.60;99.90
14908;DHT22;7545;52.092;7.006;2022-11-06T15:43:38;12.50;99.90
14908;DHT22;7545;52.092;7.006;2022-11-06T15:46:19;12.50;99.90
14908;DHT22;7545;52.092;7.006;2022-11-06T15:48:48;12.50;99.90
14908;DHT22;7545;52.092;7.006;2022-11-06T15:51:29;12.50;99.90
14908;DHT22;7545;52.092;7.006;2022-11-06T15:53:54;12.50;99.90
14908;DHT22;7545;52.092;7.006;2022-11-06T15:56:24;12.50;99.90
14908;DHT22;7545;52.092;7.006;2022-11-06T15:59:09;12.50;99.90
14908;DHT22;7545;52.092;7.006;2022-11-06T16:01:35;12.40;99.90
14908;DHT22;7545;52.092;7.006;2022-11-06T16:04:04;12.40;99.90
14908;DHT22;7545;52.092;7.006;2022-11-06T16:06:32;12.40;99.90
14908;DHT22;7545;52.092;7.006;2022-11-06T16:08:59;12.40;99.90
14908;DHT22;7545;52.092;7.006;2022-11-06T16:11:26;12.40;99.90
14908;DHT22;7545;52.092;7.006;2022-11-06T16:13:53;12.30;99.90
14908;DHT22;7545;52.092;7.006;2022-11-06T16:18:56;12.30;99.90
14908;DHT22;7545;52.092;7.006;2022-11-06T16:21:25;12.30;99.90
14908;DHT22;7545;52.092;7.006;2022-11-06T16:23:55;12.20;99.90
14908;DHT22;7545;52.092;7.006;2022-11-06T16:26:35;12.10;99.90
14908;DHT22;7545;52.092;7.006;2022-11-06T16:29:22;12.10;99.90
14908;DHT22;7545;52.092;7.006;2022-11-06T16:32:07;12.10;99.90
14908;DHT22;7545;52.092;7.006;2022-11-06T16:34:36;12.00;99.90
14908;DHT22;7545;52.092;7.006;2022-11-06T16:37:05;11.90;99.90
14908;DHT22;7545;52.092;7.006;2022-11-06T16:39:41;11.90;99.90
14908;DHT22;7545;52.092;7.006;2022-11-06T16:49:49;11.70;99.90
14908;DHT22;7545;52.092;7.006;2022-11-06T16:52:34;11.70;99.90
14908;DHT22;7545;52.092;7.006;2022-11-06T16:57:46;11.60;99.90
14908;DHT22;7545;52.092;7.006;2022-11-06T17:00:29;11.60;99.90
14908;DHT22;7545;52.092;7.006;2022-11-06T17:03:01;11.60;99.90
14908;DHT22;7545;52.092;7.006;2022-11-06T17:05:29;11.50;99.90
14908;DHT22;7545;52.092;7.006;2022-11-06T17:10:45;11.40;99.90
14908;DHT22;7545;52.092;7.006;2022-11-06T17:15:39;11.40;99.90
14908;DHT22;7545;52.092;7.006;2022-11-06T17:18:05;11.40;99.90
14908;DHT22;7545;52.092;7.006;2022-11-06T17:20:32;11.40;99.90
14908;DHT22;7545;52.092;7.006;2022-11-06T17:22:59;11.30;99.90
14908;DHT22;7545;52.092;7.006;2022-11-06T17:25:24;11.30;99.90
14908;DHT22;7545;52.092;7.006;2022-11-06T17:27:50;11.30;99.90
14908;DHT22;7545;52.092;7.006;2022-11-06T17:30:15;11.20;99.90
14908;DHT22;7545;52.092;7.006;2022-11-06T17:32:41;11.20;99.90
14908;DHT22;7545;52.092;7.006;2022-11-06T17:35:07;11.20;99.90
14908;DHT22;7545;52.092;7.006;2022-11-06T17:37:34;11.10;99.90
14908;DHT22;7545;52.092;7.006;2022-11-06T17:40:00;11.10;99.90
14908;DHT22;7545;52.092;7.006;2022-11-06T17:42:25;11.10;99.90
14908;DHT22;7545;52.092;7.006;2022-11-06T17:44:51;11.00;99.90
14908;DHT22;7545;52.092;7.006;2022-11-06T17:47:16;11.10;99.90
14908;DHT22;7545;52.092;7.006;2022-11-06T17:49:42;11.00;99.90
14908;DHT22;7545;52.092;7.006;2022-11-06T17:52:08;11.00;99.90
14908;DHT22;7545;52.092;7.006;2022-11-06T17:54:33;11.00;99.90
14908;DHT22;7545;52.092;7.006;2022-11-06T17:57:03;11.00;99.90
14908;DHT22;7545;52.092;7.006;2022-11-06T17:59:29;10.90;99.90
14908;DHT22;7545;52.092;7.006;2022-11-06T18:01:55;10.90;99.90
14908;DHT22;7545;52.092;7.006;2022-11-06T18:04:23;10.90;99.90
14908;DHT22;7545;52.092;7.006;2022-11-06T18:06:50;10.90;99.90
14908;DHT22;7545;52.092;7.006;2022-11-06T18:09:20;10.90;99.90
14908;DHT22;7545;52.092;7.006;2022-11-06T18:11:48;10.90;99.90
14908;DHT22;7545;52.092;7.006;2022-11-06T18:14:14;10.90;99.90
14908;DHT22;7545;52.092;7.006;2022-11-06T18:16:40;10.80;99.90
14908;DHT22;7545;52.092;7.006;2022-11-06T18:19:07;10.90;99.90
14908;DHT22;7545;52.092;7.006;2022-11-06T18:21:33;10.80;99.90
14908;DHT22;7545;52.092;7.006;2022-11-06T18:23:59;10.80;99.90
14908;DHT22;7545;52.092;7.006;2022-11-06T18:26:25;10.80;99.90
14908;DHT22;7545;52.092;7.006;2022-11-06T18:28:50;10.80;99.90
14908;DHT22;7545;52.092;7.006;2022-11-06T18:31:17;10.80;99.90
14908;DHT22;7545;52.092;7.006;2022-11-06T18:33:42;10.80;99.90
14908;DHT22;7545;52.092;7.006;2022-11-06T18:36:10;10.80;99.90
14908;DHT22;7545;52.092;7.006;2022-11-06T18:38:36;10.80;99.90
14908;DHT22;7545;52.092;7.006;2022-11-06T18:41:13;10.80;99.90
14908;DHT22;7545;52.092;7.006;2022-11-06T18:43:39;10.80;99.90
14908;DHT22;7545;52.092;7.006;2022-11-06T18:46:14;10.70;99.90